Time;durP1;ratioP1;P1;durP2;ratioP2;P2;SDS_P1;SDS_P2;PMS_P1;PMS_P2;Temp;Humidity;BMP_temperature;BMP_pressure;BME280_temperature;BME280_humidity;BME280_pressure;Samples;Min_cycle;Max_cycle;Signal;HPM_P1;HPM_P2
2023/07/08 00:00:24;;;;;;;0.00;0.00;;;;;;;21.83;49.67;99844.09;5000935;28;20259;-72
2023/07/08 00:02:50;;;;;;;0.00;0.00;;;;;;;21.79;49.63;99849.53;5014860;28;20516;-74
2023/07/08 00:05:18;;;;;;;0.00;0.00;;;;;;;21.82;49.86;99844.44;5020544;28;20026;-73
2023/07/08 00:07:44;;;;;;;0.00;0.00;;;;;;;21.85;49.61;99838.97;5014723;28;20041;-75
2023/07/08 00:10:22;;;;;;;0.00;0.00;;;;;;;21.68;49.71;99817.81;5013333;28;20108;-74
2023/07/08 00:12:51;;;;;;;0.00;0.00;;;;;;;21.66;49.75;99811.03;4995738;28;20433;-73
2023/07/08 00:15:24;;;;;;;0.00;0.00;;;;;;;21.66;50.02;99822.94;4988382;28;20033;-73
2023/07/08 00:17:49;;;;;;;0.00;0.00;;;;;;;21.69;49.69;99827.81;4993279;28;20036;-71
2023/07/08 00:20:38;;;;;;;0.00;0.00;;;;;;;21.73;50.07;99828.72;4986169;28;20274;-72
2023/07/08 00:23:15;;;;;;;0.00;0.00;;;;;;;21.68;49.75;99820.63;5034769;28;20130;-73
2023/07/08 00:25:41;;;;;;;0.00;0.00;;;;;;;21.80;49.95;99839.25;5024044;28;20036;-73
2023/07/08 00:28:13;;;;;;;0.00;0.00;;;;;;;21.88;49.70;99824.34;5036593;28;20025;-72
2023/07/08 00:30:41;;;;;;;0.00;0.00;;;;;;;21.99;49.49;99835.75;5039292;28;20049;-74
2023/07/08 00:33:12;;;;;;;0.00;0.00;;;;;;;22.07;49.77;99837.53;5050719;28;20031;-72
2023/07/08 00:35:45;;;;;;;0.00;0.00;;;;;;;22.10;49.88;99831.25;5009131;28;20030;-72
2023/07/08 00:38:15;;;;;;;0.00;0.00;;;;;;;21.96;49.45;99811.41;5023009;28;20060;-72
2023/07/08 00:40:52;;;;;;;0.00;0.00;;;;;;;22.00;50.08;99826.22;5025813;28;20262;-73
2023/07/08 00:43:24;;;;;;;0.00;0.00;;;;;;;22.00;49.65;99825.44;5043186;28;20029;-73
2023/07/08 00:45:53;;;;;;;0.00;0.00;;;;;;;21.96;50.10;99839.25;5008521;28;20076;-74
2023/07/08 00:48:37;;;;;;;0.00;0.00;;;;;;;21.85;50.33;99835.38;5025025;28;20085;-73
2023/07/08 00:51:02;;;;;;;0.00;0.00;;;;;;;21.79;50.70;99837.63;5032893;28;20029;-73
2023/07/08 00:53:31;;;;;;;0.00;0.00;;;;;;;21.65;50.57;99821.31;5043890;28;20377;-73
2023/07/08 00:56:16;;;;;;;0.00;0.00;;;;;;;21.59;51.30;99833.88;5040065;28;20025;-74
2023/07/08 00:59:04;;;;;;;0.00;0.00;;;;;;;21.51;51.35;99832.06;5054294;28;20475;-72
2023/07/08 01:01:35;;;;;;;0.00;0.00;;;;;;;21.26;51.24;99795.97;5020202;28;20029;-72
2023/07/08 01:04:29;;;;;;;0.00;0.00;;;;;;;21.26;51.76;99809.88;5014039;28;20022;-73
2023/07/08 01:07:03;;;;;;;0.00;0.00;;;;;;;21.33;51.96;99815.66;4995218;28;20492;-73
2023/07/08 01:09:38;;;;;;;0.00;0.00;;;;;;;21.41;52.10;99823.03;5034202;28;20037;-73
2023/07/08 01:12:10;;;;;;;0.00;0.00;;;;;;;21.43;52.52;99814.34;5030454;28;20051;-72
2023/07/08 01:14:42;;;;;;;0.00;0.00;;;;;;;21.50;52.34;99802.63;5038627;28;20146;-71
2023/07/08 01:17:13;;;;;;;0.00;0.00;;;;;;;21.75;52.01;99815.25;5041250;28;20036;-73
2023/07/08 01:19:39;;;;;;;0.00;0.00;;;;;;;21.81;51.45;99817.78;4977892;28;20049;-72
2023/07/08 01:22:07;;;;;;;0.00;0.00;;;;;;;21.87;52.07;99824.69;5012159;28;20022;-72
2023/07/08 01:24:36;;;;;;;0.00;0.00;;;;;;;21.86;51.44;99820.28;5004562;28;20197;-74
2023/07/08 01:27:04;;;;;;;0.00;0.00;;;;;;;21.71;51.63;99819.94;5012118;28;20029;-73
2023/07/08 01:29:43;;;;;;;;;;;;;;;;;;;;;
2023/07/08 01:32:13;;;;;;;0.00;0.00;;;;;;;21.78;52.31;99822.88;5023197;28;20021;-73
2023/07/08 01:34:42;;;;;;;0.00;0.00;;;;;;;21.69;52.62;99827.81;5006717;28;20034;-73
2023/07/08 01:37:12;;;;;;;0.00;0.00;;;;;;;21.61;52.98;99820.41;5019379;28;20053;-75
2023/07/08 01:39:37;;;;;;;0.00;0.00;;;;;;;21.49;53.13;99817.69;5010416;28;20435;-73
2023/07/08 01:42:03;;;;;;;0.00;0.00;;;;;;;21.51;53.40;99834.84;5022365;28;20092;-73
2023/07/08 01:44:34;;;;;;;0.00;0.00;;;;;;;21.42;53.54;99832.19;5026314;28;20063;-74
2023/07/08 01:47:33;;;;;;;;;;;;;;;;;;;;;
2023/07/08 01:50:11;;;;;;;0.00;0.00;;;;;;;21.17;53.78;99810.03;5019994;28;20037;-74
2023/07/08 01:52:39;;;;;;;0.00;0.00;;;;;;;21.20;54.06;99844.66;5020811;28;20037;-73
2023/07/08 01:55:17;;;;;;;0.00;0.00;;;;;;;20.89;54.25;99796.09;5009227;28;21021;-75
2023/07/08 01:57:48;;;;;;;0.00;0.00;;;;;;;20.83;54.46;99808.63;5017132;28;20038;-74
2023/07/08 02:00:18;;;;;;;0.00;0.00;;;;;;;20.88;54.85;99834.22;5001068;28;20022;-74
2023/07/08 02:02:46;;;;;;;0.00;0.00;;;;;;;20.75;55.08;99819.53;4996748;28;20084;-74
2023/07/08 02:05:11;;;;;;;0.00;0.00;;;;;;;20.82;55.27;99821.72;5024323;28;20038;-73
2023/07/08 02:07:37;;;;;;;0.00;0.00;;;;;;;20.84;55.41;99827.72;5003882;28;20033;-74
2023/07/08 02:10:02;;;;;;;0.00;0.00;;;;;;;20.85;55.69;99829.34;5021960;28;20037;-73
2023/07/08 02:12:28;;;;;;;0.00;0.00;;;;;;;20.90;55.76;99828.31;5019332;28;20104;-73
2023/07/08 02:14:53;;;;;;;0.00;0.00;;;;;;;20.78;56.35;99823.56;5021208;28;20029;-72
2023/07/08 02:17:19;;;;;;;0.00;0.00;;;;;;;20.78;56.36;99833.84;5008853;28;20038;-73
2023/07/08 02:19:44;;;;;;;0.00;0.00;;;;;;;20.66;56.60;99821.63;5015160;28;20053;-74
2023/07/08 02:22:10;;;;;;;0.00;0.00;;;;;;;20.68;57.03;99813.75;5019332;28;20392;-74
2023/07/08 02:24:35;;;;;;;0.00;0.00;;;;;;;20.71;56.96;99824.16;5027949;28;20025;-73
2023/07/08 02:27:01;;;;;;;0.00;0.00;;;;;;;20.67;57.51;99817.66;5019250;28;20021;-74
2023/07/08 02:29:27;;;;;;;0.00;0.00;;;;;;;20.61;57.32;99813.47;5018536;28;20479;-73
2023/07/08 02:31:52;;;;;;;0.00;0.00;;;;;;;20.57;57.38;99824.50;5028094;28;20121;-72
2023/07/08 02:34:21;;;;;;;0.00;0.00;;;;;;;20.46;57.98;99823.34;5007516;28;20036;-72
2023/07/08 02:36:46;;;;;;;0.00;0.00;;;;;;;20.41;58.18;99820.78;5021428;28;20034;-73
2023/07/08 02:39:12;;;;;;;0.00;0.00;;;;;;;20.42;58.44;99827.97;5021937;28;20049;-74
2023/07/08 02:41:37;;;;;;;0.00;0.00;;;;;;;20.20;58.55;99805.03;5020935;28;20033;-74
2023/07/08 02:44:03;;;;;;;0.00;0.00;;;;;;;20.30;58.44;99844.63;5025894;28;20480;-73
2023/07/08 02:46:28;;;;;;;0.00;0.00;;;;;;;20.27;59.18;99831.41;5001834;28;20392;-73
2023/07/08 02:48:56;;;;;;;0.00;0.00;;;;;;;20.17;59.07;99827.16;5029931;28;20064;-76
2023/07/08 02:51:21;;;;;;;0.00;0.00;;;;;;;20.22;59.37;99843.56;4999241;28;20030;-73
2023/07/08 02:53:49;;;;;;;0.00;0.00;;;;;;;20.17;60.33;99849.34;5013782;28;20084;-74
2023/07/08 02:56:15;;;;;;;0.00;0.00;;;;;;;20.13;60.64;99853.97;5008478;28;20040;-75
2023/07/08 02:58:40;;;;;;;0.00;0.00;;;;;;;20.02;61.75;99840.53;4986034;28;20030;-74
2023/07/08 03:01:06;;;;;;;0.00;0.00;;;;;;;20.10;62.06;99854.66;5019447;28;20029;-74
2023/07/08 03:03:32;;;;;;;0.00;0.00;;;;;;;20.00;62.00;99837.28;5011842;28;20442;-74
2023/07/08 03:06:00;;;;;;;0.00;0.00;;;;;;;20.05;62.74;99837.06;5020755;28;20053;-74
2023/07/08 03:08:27;;;;;;;0.00;0.00;;;;;;;20.04;62.59;99835.44;5016569;28;20125;-74
2023/07/08 03:11:01;;;;;;;0.00;0.00;;;;;;;20.10;63.17;99857.44;5010644;28;20476;-74
2023/07/08 03:13:27;;;;;;;0.00;0.00;;;;;;;20.08;63.75;99852.22;5011405;28;20148;-74
2023/07/08 03:16:01;;;;;;;0.00;0.00;;;;;;;19.97;63.61;99846.28;5029191;28;20041;-73
2023/07/08 03:18:28;;;;;;;0.00;0.00;;;;;;;19.94;63.98;99841.44;5025050;28;20444;-74
2023/07/08 03:20:56;;;;;;;0.00;0.00;;;;;;;19.94;63.80;99846.97;5013760;28;20037;-72
2023/07/08 03:23:25;;;;;;;0.00;0.00;;;;;;;19.90;64.48;99851.59;5041462;28;20029;-73
2023/07/08 03:25:51;;;;;;;0.00;0.00;;;;;;;19.86;64.17;99843.16;5019059;28;20064;-74
2023/07/08 03:28:17;;;;;;;0.00;0.00;;;;;;;19.87;64.64;99860.59;5017739;28;20108;-71
2023/07/08 03:30:43;;;;;;;0.00;0.00;;;;;;;19.81;65.02;99859.22;5002934;28;20192;-74
2023/07/08 03:33:12;;;;;;;0.00;0.00;;;;;;;19.73;64.81;99869.22;5011588;28;20025;-72
2023/07/08 03:35:41;;;;;;;0.00;0.00;;;;;;;19.60;65.47;99854.47;5021332;28;20693;-73
2023/07/08 03:38:09;;;;;;;0.00;0.00;;;;;;;19.63;65.45;99872.41;5016253;28;20037;-72
2023/07/08 03:40:35;;;;;;;0.00;0.00;;;;;;;19.61;66.60;99878.31;5023508;28;20041;-73
2023/07/08 03:43:00;;;;;;;0.00;0.00;;;;;;;19.58;66.96;99884.53;5014002;28;20103;-72
2023/07/08 03:45:29;;;;;;;0.00;0.00;;;;;;;19.52;66.98;99878.38;5013111;28;20026;-72
2023/07/08 03:47:54;;;;;;;0.00;0.00;;;;;;;19.46;67.46;99873.38;5024244;28;20416;-71
2023/07/08 03:50:27;;;;;;;0.00;0.00;;;;;;;19.50;67.49;99885.41;5020005;28;20033;-71
2023/07/08 03:52:54;;;;;;;0.00;0.00;;;;;;;19.45;67.59;99896.69;5015098;28;20029;-72
2023/07/08 03:55:20;;;;;;;0.00;0.00;;;;;;;19.42;67.97;99902.91;5003639;28;20061;-71
2023/07/08 03:57:48;;;;;;;0.00;0.00;;;;;;;19.28;67.81;99892.91;5018354;28;20060;-72
2023/07/08 04:00:15;;;;;;;0.00;0.00;;;;;;;19.33;68.09;99917.69;5009849;28;20041;-72
2023/07/08 04:02:42;;;;;;;0.00;0.00;;;;;;;19.32;68.63;99927.13;5020449;28;20064;-71
2023/07/08 04:05:28;;;;;;;0.00;0.00;;;;;;;19.33;69.12;99928.75;5015252;28;20021;-71
2023/07/08 04:07:55;;;;;;;0.00;0.00;;;;;;;19.29;69.18;99918.66;4992803;28;20471;-72
2023/07/08 04:10:20;;;;;;;0.00;0.00;;;;;;;19.31;69.24;99930.25;4980826;28;20060;-70
2023/07/08 04:12:51;;;;;;;0.00;0.00;;;;;;;19.33;70.40;99945.41;5005055;28;20727;-70
2023/07/08 04:15:25;;;;;;;0.00;0.00;;;;;;;19.23;70.34;99931.94;5026566;28;20025;-72
2023/07/08 04:17:51;;;;;;;0.00;0.00;;;;;;;19.19;71.04;99936.53;4985877;28;20033;-73
2023/07/08 04:20:19;;;;;;;0.00;0.00;;;;;;;19.19;70.65;99933.75;5002583;28;20054;-72
2023/07/08 04:22:45;;;;;;;0.00;0.00;;;;;;;19.29;70.85;99960.25;5015021;28;20042;-72
2023/07/08 04:25:14;;;;;;;0.00;0.00;;;;;;;19.22;70.94;99933.06;5029074;28;20033;-72
2023/07/08 04:27:40;;;;;;;0.00;0.00;;;;;;;19.29;71.28;99955.53;4997197;28;20033;-72
2023/07/08 04:30:07;;;;;;;0.00;0.00;;;;;;;19.28;71.51;99948.34;5001978;28;20120;-72
2023/07/08 04:32:32;;;;;;;0.00;0.00;;;;;;;19.25;71.64;99949.03;4999347;28;20211;-73
2023/07/08 04:34:58;;;;;;;0.00;0.00;;;;;;;19.29;71.68;99941.66;5009781;28;20527;-73
2023/07/08 04:37:30;;;;;;;0.00;0.00;;;;;;;19.23;72.44;99928.34;4982806;28;20042;-73
2023/07/08 04:39:55;;;;;;;0.00;0.00;;;;;;;19.38;72.43;99946.31;5019694;28;20048;-73
2023/07/08 04:42:20;;;;;;;0.00;0.00;;;;;;;19.46;72.31;99948.22;5005783;28;20033;-72
2023/07/08 04:44:46;;;;;;;0.00;0.00;;;;;;;19.50;71.59;99943.63;5001258;28;20041;-75
2023/07/08 04:47:20;;;;;;;0.00;0.00;;;;;;;19.55;71.33;99948.97;5021157;28;20029;-71
2023/07/08 04:49:47;;;;;;;0.00;0.00;;;;;;;19.63;71.59;99941.75;5015683;28;20025;-73
2023/07/08 04:52:12;;;;;;;0.00;0.00;;;;;;;19.67;71.10;99937.16;5003115;28;20034;-73
2023/07/08 04:54:43;;;;;;;0.00;0.00;;;;;;;19.78;71.02;99957.78;5001310;28;20038;-74
2023/07/08 04:57:08;;;;;;;0.00;0.00;;;;;;;19.78;70.86;99966.09;5004851;28;20038;-72
2023/07/08 04:59:34;;;;;;;0.00;0.00;;;;;;;19.73;71.10;99951.59;4997684;28;20037;-73
2023/07/08 05:02:00;;;;;;;0.00;0.00;;;;;;;19.78;70.94;99970.81;5003380;28;20045;-73
2023/07/08 05:04:25;;;;;;;0.00;0.00;;;;;;;19.57;71.40;99941.13;5024696;28;20559;-73
2023/07/08 05:06:58;;;;;;;0.00;0.00;;;;;;;19.79;71.05;99972.50;5006106;28;20056;-75
2023/07/08 05:09:26;;;;;;;0.00;0.00;;;;;;;19.68;71.15;99956.22;5008112;28;20033;-74
2023/07/08 05:11:54;;;;;;;0.00;0.00;;;;;;;19.79;71.64;99966.94;5008473;28;20041;-73
2023/07/08 05:14:20;;;;;;;0.00;0.00;;;;;;;20.01;71.02;99985.97;5019616;28;20040;-73
2023/07/08 05:16:48;;;;;;;0.00;0.00;;;;;;;20.19;70.87;99992.19;5020595;28;20022;-73
2023/07/08 05:19:25;;;;;;;0.00;0.00;;;;;;;20.32;69.93;99979.16;5030460;28;20184;-74
2023/07/08 05:21:51;;;;;;;0.00;0.00;;;;;;;20.44;70.05;99972.81;4978405;28;20048;-75
2023/07/08 05:24:16;;;;;;;0.00;0.00;;;;;;;20.57;69.92;99980.03;5013377;28;20412;-76
2023/07/08 05:26:41;;;;;;;0.00;0.00;;;;;;;20.80;69.21;99989.94;4990189;28;20030;-74
2023/07/08 05:29:07;;;;;;;0.00;0.00;;;;;;;20.83;68.93;99975.34;4998900;28;20049;-73
2023/07/08 05:31:34;;;;;;;0.00;0.00;;;;;;;20.99;68.68;100001.28;4998012;28;20039;-74
2023/07/08 05:34:06;;;;;;;0.00;0.00;;;;;;;21.10;68.64;100001.66;5009107;28;20029;-73
2023/07/08 05:36:43;;;;;;;0.00;0.00;;;;;;;21.24;67.94;99995.72;5009614;28;20033;-77
2023/07/08 05:39:11;;;;;;;0.00;0.00;;;;;;;21.34;67.44;99995.25;5001109;28;20041;-76
2023/07/08 05:41:36;;;;;;;0.00;0.00;;;;;;;21.59;66.81;100006.34;5009990;28;20026;-74
2023/07/08 05:44:05;;;;;;;0.00;0.00;;;;;;;21.51;67.05;99987.81;5024779;28;20026;-76
2023/07/08 05:46:33;;;;;;;0.00;0.00;;;;;;;21.44;66.78;99994.75;5015108;28;20045;-75
2023/07/08 05:48:59;;;;;;;0.00;0.00;;;;;;;21.34;67.47;100011.13;4996721;28;20029;-74
2023/07/08 05:51:24;;;;;;;0.00;0.00;;;;;;;21.25;67.43;99997.34;4987827;28;20022;-75
2023/07/08 05:53:52;;;;;;;0.00;0.00;;;;;;;21.31;67.53;100007.06;5024284;28;20476;-74
2023/07/08 05:56:23;;;;;;;0.00;0.00;;;;;;;21.53;66.85;100027.25;4983765;28;20113;-73
2023/07/08 05:58:48;;;;;;;0.00;0.00;;;;;;;21.37;66.63;100005.66;5002465;28;20487;-76
2023/07/08 06:01:13;;;;;;;0.00;0.00;;;;;;;21.32;66.50;100019.81;4998982;28;20034;-73
2023/07/08 06:03:39;;;;;;;0.00;0.00;;;;;;;21.20;67.19;100025.38;5020101;28;20751;-75
2023/07/08 06:06:06;;;;;;;0.00;0.00;;;;;;;21.23;67.12;100050.53;5015430;28;20021;-75
2023/07/08 06:08:31;;;;;;;0.00;0.00;;;;;;;21.16;67.28;100032.78;5018773;28;20029;-74
2023/07/08 06:10:59;;;;;;;0.00;0.00;;;;;;;21.20;66.94;100045.66;5023864;28;20449;-75
2023/07/08 06:13:24;;;;;;;0.00;0.00;;;;;;;21.06;67.50;100046.00;4995999;28;20041;-74
2023/07/08 06:15:50;;;;;;;0.00;0.00;;;;;;;20.83;67.48;100025.34;5015694;28;20125;-73
2023/07/08 06:18:16;;;;;;;0.00;0.00;;;;;;;20.82;67.68;100048.72;5015258;28;20021;-71
2023/07/08 06:20:41;;;;;;;0.00;0.00;;;;;;;20.78;67.93;100043.06;5023929;28;20099;-71
2023/07/08 06:23:07;;;;;;;0.00;0.00;;;;;;;20.96;68.00;100071.47;5026363;28;20044;-72
2023/07/08 06:25:33;;;;;;;0.00;0.00;;;;;;;20.98;67.85;100074.69;4997115;28;20529;-71
2023/07/08 06:27:58;;;;;;;0.00;0.00;;;;;;;20.93;67.58;100074.94;5021525;28;20030;-71
2023/07/08 06:30:24;;;;;;;0.00;0.00;;;;;;;20.91;67.38;100064.16;5018834;28;20034;-73
2023/07/08 06:32:49;;;;;;;0.00;0.00;;;;;;;21.07;67.46;100047.63;4981189;28;20436;-72
2023/07/08 06:35:15;;;;;;;0.00;0.00;;;;;;;21.36;67.08;100056.91;5018379;28;20025;-71
2023/07/08 06:37:50;;;;;;;0.00;0.00;;;;;;;21.60;66.32;100058.06;5020488;28;21670;-71
2023/07/08 06:40:24;;;;;;;0.00;0.00;;;;;;;21.93;65.66;100066.25;5014483;28;20491;-72
2023/07/08 06:42:50;;;;;;;0.00;0.00;;;;;;;22.37;64.81;100040.47;5020003;28;20043;-71
2023/07/08 06:45:18;;;;;;;0.00;0.00;;;;;;;22.93;63.51;100052.69;5020011;28;20500;-71
2023/07/08 06:47:45;;;;;;;0.00;0.00;;;;;;;23.42;61.78;100071.88;4999229;28;20045;-72
2023/07/08 06:50:10;;;;;;;0.00;0.00;;;;;;;23.61;61.31;100082.28;5013457;28;20041;-71
2023/07/08 06:52:36;;;;;;;0.00;0.00;;;;;;;23.61;60.93;100075.88;5012951;28;20025;-72
2023/07/08 06:55:04;;;;;;;0.00;0.00;;;;;;;23.55;61.02;100083.72;5006993;28;20057;-73
2023/07/08 06:57:30;;;;;;;0.00;0.00;;;;;;;23.23;61.17;100083.75;5000368;28;20053;-73
2023/07/08 06:59:55;;;;;;;0.00;0.00;;;;;;;23.13;61.20;100095.44;5007124;28;20030;-73
2023/07/08 07:02:26;;;;;;;0.00;0.00;;;;;;;22.93;62.15;100078.59;4998348;28;20033;-73
2023/07/08 07:04:52;;;;;;;0.00;0.00;;;;;;;23.06;62.24;100098.84;4997404;28;20034;-75
2023/07/08 07:07:17;;;;;;;0.00;0.00;;;;;;;23.13;62.73;100099.06;5024080;28;20716;-74
2023/07/08 07:09:43;;;;;;;0.00;0.00;;;;;;;23.22;62.32;100090.50;5001826;28;20045;-75
2023/07/08 07:12:11;;;;;;;0.00;0.00;;;;;;;23.15;62.33;100063.22;5020419;28;20532;-75
2023/07/08 07:14:37;;;;;;;0.00;0.00;;;;;;;23.26;62.20;100079.44;5024387;28;20120;-75
2023/07/08 07:17:02;;;;;;;0.00;0.00;;;;;;;23.24;61.99;100093.72;4987089;28;20623;-74
2023/07/08 07:19:31;;;;;;;0.00;0.00;;;;;;;23.21;61.99;100107.59;5027107;28;20140;-74
2023/07/08 07:21:56;;;;;;;0.00;0.00;;;;;;;23.12;62.31;100103.00;5027678;28;20025;-74
2023/07/08 07:24:22;;;;;;;0.00;0.00;;;;;;;23.27;62.12;100114.53;5006312;28;20380;-73
2023/07/08 07:26:47;;;;;;;0.00;0.00;;;;;;;23.27;62.67;100108.94;5020904;28;20032;-72
2023/07/08 07:29:19;;;;;;;0.00;0.00;;;;;;;23.24;62.25;100090.16;5033778;28;20032;-75
2023/07/08 07:31:51;;;;;;;0.00;0.00;;;;;;;23.41;62.70;100114.88;5042118;28;20013;-74
2023/07/08 07:34:25;;;;;;;0.00;0.00;;;;;;;23.39;62.16;100100.47;5026288;28;21336;-72
2023/07/08 07:37:01;;;;;;;0.00;0.00;;;;;;;23.47;62.00;100107.84;5040920;28;21051;-73
2023/07/08 07:39:28;;;;;;;0.00;0.00;;;;;;;23.58;62.27;100143.56;5025136;28;20037;-79
2023/07/08 07:41:54;;;;;;;0.00;0.00;;;;;;;23.42;62.37;100150.00;5010672;28;20029;-79
2023/07/08 07:44:19;;;;;;;0.00;0.00;;;;;;;23.15;62.94;100160.84;5009398;28;20036;-78
2023/07/08 07:46:46;;;;;;;0.00;0.00;;;;;;;22.94;63.31;100207.63;5026748;28;20031;-79
2023/07/08 07:49:11;;;;;;;0.00;0.00;;;;;;;22.52;65.33;100235.91;5008982;28;20079;-78
2023/07/08 07:51:36;;;;;;;0.00;0.00;;;;;;;22.05;67.77;100240.78;5010877;28;20021;-77
2023/07/08 07:54:02;;;;;;;0.00;0.00;;;;;;;21.63;69.53;100242.97;5000477;28;20115;-77
2023/07/08 07:56:27;;;;;;;0.00;0.00;;;;;;;21.13;72.43;100239.19;4994408;28;20785;-78
2023/07/08 07:58:53;;;;;;;0.00;0.00;;;;;;;20.16;81.39;100216.91;5010943;28;20029;-76
2023/07/08 08:01:19;;;;;;;0.00;0.00;;;;;;;19.45;86.84;100248.81;5006219;28;20416;-76
2023/07/08 08:03:45;;;;;;;0.00;0.00;;;;;;;19.01;90.84;100222.03;5005767;28;20112;-76
2023/07/08 08:06:10;;;;;;;0.00;0.00;;;;;;;18.75;94.22;100224.78;4993712;28;20109;-76
2023/07/08 08:08:36;;;;;;;0.00;0.00;;;;;;;18.55;96.17;100226.22;5012173;28;20442;-77
2023/07/08 08:11:01;;;;;;;0.00;0.00;;;;;;;18.45;97.13;100226.56;5020448;28;20039;-77
2023/07/08 08:13:27;;;;;;;0.00;0.00;;;;;;;18.40;97.70;100224.75;5022083;28;20021;-81
2023/07/08 08:15:57;;;;;;;0.00;0.00;;;;;;;18.36;98.09;100204.41;5048070;28;20085;-79
2023/07/08 08:18:22;;;;;;;0.00;0.00;;;;;;;18.33;98.75;100171.03;5043884;28;20052;-79
2023/07/08 08:20:50;;;;;;;0.00;0.00;;;;;;;18.33;100.00;100140.56;5008274;28;20838;-77
2023/07/08 08:23:16;;;;;;;0.00;0.00;;;;;;;18.45;100.00;100149.84;5003790;28;20034;-76
2023/07/08 08:25:41;;;;;;;0.00;0.00;;;;;;;18.49;100.00;100138.94;5025899;28;21857;-79
2023/07/08 08:28:06;;;;;;;0.00;0.00;;;;;;;18.65;100.00;100122.66;5012253;28;20029;-77
2023/07/08 08:30:32;;;;;;;0.00;0.00;;;;;;;18.91;100.00;100133.72;5008413;28;20092;-77
2023/07/08 08:32:59;;;;;;;0.00;0.00;;;;;;;19.21;99.38;100142.09;4990863;28;20029;-77
2023/07/08 08:35:26;;;;;;;0.00;0.00;;;;;;;19.47;98.37;100163.38;5023335;28;20108;-78
2023/07/08 08:37:53;;;;;;;0.00;0.00;;;;;;;19.71;97.92;100144.16;5009229;28;20116;-76
2023/07/08 08:40:18;;;;;;;0.00;0.00;;;;;;;19.82;96.14;100116.06;5014398;28;20040;-79
2023/07/08 08:42:53;;;;;;;0.00;0.00;;;;;;;20.17;95.26;100129.69;5012228;28;20025;-78
2023/07/08 08:45:20;;;;;;;0.00;0.00;;;;;;;20.26;94.75;100122.09;5029863;28;20030;-77
2023/07/08 08:47:51;;;;;;;0.00;0.00;;;;;;;20.43;94.59;100129.50;5022739;28;20021;-78
2023/07/08 08:50:48;;;;;;;0.00;0.00;;;;;;;20.52;93.86;100127.44;5027341;28;20029;-79
2023/07/08 08:53:17;;;;;;;0.00;0.00;;;;;;;20.53;93.59;100125.47;5020982;28;20017;-76
2023/07/08 08:55:42;;;;;;;0.00;0.00;;;;;;;20.58;92.79;100112.19;5040485;28;20369;-76
2023/07/08 08:58:08;;;;;;;0.00;0.00;;;;;;;20.74;92.29;100109.59;5005216;28;20027;-77
2023/07/08 09:00:54;;;;;;;0.00;0.00;;;;;;;20.77;92.13;100098.97;5028496;28;20017;-78
2023/07/08 09:03:32;;;;;;;0.00;0.00;;;;;;;20.86;91.35;100092.16;5024953;28;20021;-78
2023/07/08 09:05:59;;;;;;;0.00;0.00;;;;;;;21.04;90.56;100095.56;5020626;28;20103;-78
2023/07/08 09:08:35;;;;;;;0.00;0.00;;;;;;;21.09;89.83;100084.22;5038678;28;20033;-78
2023/07/08 09:11:33;;;;;;;0.00;0.00;;;;;;;21.24;89.45;100079.13;5027480;28;20375;-76
2023/07/08 09:13:59;;;;;;;0.00;0.00;;;;;;;21.44;88.58;100078.19;5019423;28;20037;-77
2023/07/08 09:16:42;;;;;;;0.00;0.00;;;;;;;21.67;87.55;100097.25;5008224;28;20021;-76
2023/07/08 09:19:26;;;;;;;0.00;0.00;;;;;;;21.84;87.54;100106.50;5038719;28;20045;-76
2023/07/08 09:22:13;;;;;;;0.00;0.00;;;;;;;21.97;86.41;100103.31;5043104;28;20033;-78
2023/07/08 09:25:01;;;;;;;0.00;0.00;;;;;;;22.16;84.95;100096.31;5030331;28;20337;-76
2023/07/08 09:27:26;;;;;;;0.00;0.00;;;;;;;22.19;84.86;100105.94;5022020;28;20383;-76
2023/07/08 09:29:52;;;;;;;0.00;0.00;;;;;;;22.31;83.84;100119.81;5022828;28;20029;-76
2023/07/08 09:32:20;;;;;;;0.00;0.00;;;;;;;22.43;83.26;100122.63;5010010;28;20454;-79
2023/07/08 09:34:50;;;;;;;0.00;0.00;;;;;;;22.53;82.58;100134.41;5030520;28;20025;-76
2023/07/08 09:37:38;;;;;;;0.00;0.00;;;;;;;22.40;81.40;100128.91;5048205;28;20049;-78
2023/07/08 09:40:31;;;;;;;0.00;0.00;;;;;;;22.35;80.62;100131.91;5013339;28;20079;-77
2023/07/08 09:43:24;;;;;;;0.00;0.00;;;;;;;22.50;80.37;100155.44;5035917;28;20135;-76
2023/07/08 09:45:50;;;;;;;0.00;0.00;;;;;;;22.36;79.27;100161.41;5040739;28;20096;-77
2023/07/08 09:48:20;;;;;;;0.00;0.00;;;;;;;22.29;79.16;100194.56;5014582;28;20116;-77
2023/07/08 09:50:50;;;;;;;0.00;0.00;;;;;;;22.10;79.19;100221.06;5014432;28;20027;-77
2023/07/08 09:53:16;;;;;;;0.00;0.00;;;;;;;21.79;79.93;100188.25;5026781;28;20020;-75
2023/07/08 09:55:42;;;;;;;0.00;0.00;;;;;;;22.02;79.82;100196.13;5052138;28;20025;-76
2023/07/08 09:58:14;;;;;;;0.00;0.00;;;;;;;22.31;79.11;100212.56;5031721;28;20025;-75
2023/07/08 10:00:41;;;;;;;0.00;0.00;;;;;;;22.64;77.50;100216.34;5032231;28;20055;-76
2023/07/08 10:03:36;;;;;;;0.00;0.00;;;;;;;23.80;75.91;100218.31;4996452;28;20066;-75
2023/07/08 10:06:22;;;;;;;0.00;0.00;;;;;;;24.65;73.31;100208.69;5003348;28;20041;-78
2023/07/08 10:08:48;;;;;;;0.00;0.00;;;;;;;25.15;71.02;100208.91;5030506;28;20058;-76
2023/07/08 10:11:16;;;;;;;0.00;0.00;;;;;;;25.53;69.93;100224.00;5002367;28;20057;-78
2023/07/08 10:13:49;;;;;;;0.00;0.00;;;;;;;26.07;68.11;100202.50;5047598;28;20104;-77
2023/07/08 10:16:29;;;;;;;0.00;0.00;;;;;;;26.56;66.40;100218.44;5021400;28;20061;-76
2023/07/08 10:18:55;;;;;;;0.00;0.00;;;;;;;26.55;64.53;100190.78;5020069;28;20045;-77
2023/07/08 10:21:39;;;;;;;0.00;0.00;;;;;;;26.55;64.14;100204.78;5031674;28;21019;-78
2023/07/08 10:24:19;;;;;;;;;;;;;;;26.69;63.78;100223.81;5040456;28;20025;-75
2023/07/08 10:26:50;;;;;;;0.00;0.00;;;;;;;26.57;63.63;100236.03;5024053;28;19919;-79
2023/07/08 10:29:28;;;;;;;0.00;0.00;;;;;;;26.10;64.55;100215.75;5026784;28;20025;-77
2023/07/08 10:32:06;;;;;;;0.00;0.00;;;;;;;25.81;64.16;100234.88;5051148;28;20106;-76
2023/07/08 10:34:41;;;;;;;0.00;0.00;;;;;;;25.80;64.60;100233.25;5026297;28;20036;-78
2023/07/08 10:37:21;;;;;;;0.00;0.00;;;;;;;26.39;64.41;100235.81;5025436;28;20031;-75
2023/07/08 10:40:05;;;;;;;0.00;0.00;;;;;;;27.08;61.24;100245.94;5040667;28;20048;-77
2023/07/08 10:43:06;;;;;;;0.00;0.00;;;;;;;26.92;60.85;100257.34;5041613;28;20028;-76
2023/07/08 10:45:58;;;;;;;0.00;0.00;;;;;;;26.17;61.87;100251.47;5031418;28;20037;-76
2023/07/08 10:48:42;;;;;;;0.00;0.00;;;;;;;25.43;63.61;100265.41;5034704;28;20044;-77
2023/07/08 10:51:46;;;;;;;0.00;0.00;;;;;;;24.79;65.01;100261.31;5029072;28;20416;-76
2023/07/08 10:54:44;;;;;;;0.00;0.00;;;;;;;24.40;66.48;100267.63;4984590;28;20118;-78
2023/07/08 10:57:28;;;;;;;0.00;0.00;;;;;;;24.07;66.96;100274.44;4971465;28;20041;-78
2023/07/08 11:00:10;;;;;;;;;;;;;;;23.60;68.05;100275.22;5020983;28;20048;-75
2023/07/08 11:02:44;;;;;;;0.00;0.00;;;;;;;22.95;69.25;100273.38;5044986;28;20370;-78
2023/07/08 11:05:09;;;;;;;0.00;0.00;;;;;;;22.67;70.11;100282.53;5026472;28;20025;-76
2023/07/08 11:07:43;;;;;;;0.00;0.00;;;;;;;22.30;71.95;100279.75;5049987;28;20024;-75
2023/07/08 11:10:35;;;;;;;0.00;0.00;;;;;;;21.87;72.57;100242.16;5048429;28;20051;-74
2023/07/08 11:13:45;;;;;;;;;;;;;;;;;;;;;
2023/07/08 11:16:12;;;;;;;0.00;0.00;;;;;;;22.36;72.85;100278.41;5033540;28;20033;-76
2023/07/08 11:18:40;;;;;;;0.00;0.00;;;;;;;22.53;73.11;100282.06;5028820;28;20037;-76
2023/07/08 11:21:15;;;;;;;0.00;0.00;;;;;;;22.59;72.30;100252.81;5039010;28;20048;-75
2023/07/08 11:23:45;;;;;;;0.00;0.00;;;;;;;23.21;71.45;100295.28;5027891;28;20032;-76
2023/07/08 11:26:16;;;;;;;0.00;0.00;;;;;;;23.53;69.12;100306.53;5033598;28;20021;-77
2023/07/08 11:28:46;;;;;;;0.00;0.00;;;;;;;23.57;69.86;100278.69;5045345;28;20104;-76
2023/07/08 11:31:14;;;;;;;0.00;0.00;;;;;;;23.93;68.34;100274.06;5029269;28;20030;-77
2023/07/08 11:33:42;;;;;;;0.00;0.00;;;;;;;24.54;67.43;100293.09;5030489;28;20021;-77
2023/07/08 11:36:11;;;;;;;0.00;0.00;;;;;;;25.03;65.61;100288.19;5010809;28;20027;-76
2023/07/08 11:38:46;;;;;;;0.00;0.00;;;;;;;25.31;63.85;100284.38;5049670;28;20033;-76
2023/07/08 11:41:15;;;;;;;0.00;0.00;;;;;;;25.66;62.05;100281.44;4999850;28;20028;-76
2023/07/08 11:43:58;;;;;;;0.00;0.00;;;;;;;25.91;61.00;100293.06;5019483;28;20029;-77
2023/07/08 11:46:30;;;;;;;0.00;0.00;;;;;;;25.94;61.35;100288.72;5023409;28;20018;-76
2023/07/08 11:49:11;;;;;;;0.00;0.00;;;;;;;25.95;61.83;100307.94;5026754;28;20029;-75